createdAt,value
2023-02-22T13:58:46.807Z,25.83
2023-02-22T14:00:46.412Z,25.69
2023-02-22T14:02:46.016Z,25.60
2023-02-22T14:03:45.828Z,25.58
2023-02-22T14:04:45.628Z,25.68
2023-02-22T14:05:45.467Z,25.62
2023-02-22T14:06:45.221Z,25.52
2023-02-22T14:07:45.025Z,25.58
2023-02-22T14:08:44.816Z,25.63
2023-02-22T14:09:44.677Z,25.53
2023-02-22T14:10:44.419Z,25.53
2023-02-22T14:11:44.231Z,25.45
2023-02-22T14:12:44.031Z,25.48
2023-02-22T14:13:43.816Z,25.48
2023-02-22T14:14:43.631Z,25.38
2023-02-22T14:15:44.165Z,25.40
2023-02-22T14:16:43.223Z,25.40
2023-02-22T15:28:33.389Z,25.96
2023-02-22T15:29:33.223Z,25.98
2023-02-22T16:27:23.264Z,26.65
2023-02-22T17:14:15.782Z,27.04
2023-02-22T17:15:15.656Z,27.06
2023-02-22T17:16:15.950Z,27.00
2023-02-22T17:17:15.342Z,27.06
2023-02-22T17:18:15.199Z,27.04
2023-02-22T17:19:15.075Z,27.07
2023-02-22T17:20:14.897Z,27.03
2023-02-22T17:21:14.759Z,27.09
2023-02-22T17:22:14.614Z,27.09
2023-02-22T17:23:14.468Z,27.07
2023-02-22T17:24:14.327Z,27.02
2023-02-22T17:25:14.180Z,27.00
2023-02-22T17:26:14.032Z,27.02
2023-02-22T17:27:13.888Z,27.06
2023-02-22T17:28:13.721Z,27.02
2023-02-22T17:29:13.575Z,27.03
2023-02-22T17:30:13.451Z,26.96
2023-02-22T17:31:13.303Z,26.98
2023-02-22T17:32:13.174Z,27.01
2023-02-22T17:33:12.982Z,26.99
2023-02-22T17:34:12.825Z,26.95
2023-02-22T17:35:12.673Z,26.95
2023-02-22T17:36:12.530Z,27.01
2023-02-22T17:37:12.362Z,26.95
2023-02-22T17:38:12.220Z,26.98
2023-02-22T17:39:12.063Z,26.97
2023-02-22T17:40:11.927Z,26.98
2023-02-22T17:41:11.756Z,26.97
2023-02-22T17:42:11.604Z,26.93
2023-02-22T17:43:11.437Z,27.00
2023-02-22T17:44:11.285Z,26.97
2023-02-22T17:45:11.129Z,26.94
2023-02-22T17:46:11.024Z,26.94
2023-02-22T17:47:10.824Z,26.98
2023-02-22T17:48:10.664Z,26.95
2023-02-22T17:49:10.510Z,26.93
2023-02-22T17:50:10.350Z,26.93
2023-02-22T17:51:10.198Z,26.95
2023-02-22T17:52:10.055Z,26.91
2023-02-22T17:53:09.879Z,26.95
2023-02-22T17:54:10.507Z,26.95
2023-02-22T17:55:09.564Z,26.91
2023-02-22T17:56:09.415Z,26.93
2023-02-22T17:57:09.236Z,26.97
2023-02-22T17:58:09.079Z,26.97
2023-02-22T17:59:08.912Z,26.98
2023-02-22T18:00:08.747Z,26.95
2023-02-22T18:01:08.593Z,26.95
2023-02-22T18:02:08.564Z,26.94
2023-02-22T18:03:08.349Z,26.93
2023-02-22T18:04:08.128Z,27.00
2023-02-22T18:05:07.957Z,26.98
2023-02-22T18:06:07.798Z,27.01
2023-02-22T18:07:07.633Z,27.00
2023-02-22T18:08:07.470Z,26.98
2023-02-22T18:09:07.378Z,26.94
2023-02-22T18:10:07.159Z,26.93
2023-02-22T18:11:06.988Z,26.95
2023-02-22T18:12:06.830Z,26.95
2023-02-22T18:13:06.678Z,26.95
2023-02-22T18:14:08.147Z,26.99
2023-02-22T18:15:06.526Z,26.97
2023-02-22T18:16:06.435Z,27.01
2023-02-22T18:17:06.200Z,26.97
2023-02-22T18:18:06.072Z,27.00
2023-02-22T18:19:05.883Z,27.01
2023-02-22T18:20:05.716Z,27.04
2023-02-22T18:21:05.580Z,27.00
2023-02-22T18:22:05.403Z,26.95
2023-02-22T18:23:05.252Z,26.97
2023-02-22T18:24:05.117Z,27.07
2023-02-22T18:25:04.931Z,26.98
2023-02-22T18:26:11.137Z,27.00
2023-02-22T18:27:05.579Z,27.01
2023-02-22T18:28:04.412Z,27.04
2023-02-22T18:29:04.214Z,27.02
2023-02-22T18:30:04.034Z,26.98
2023-02-22T18:31:03.874Z,27.03
2023-02-22T18:32:03.707Z,27.03
2023-02-22T18:33:03.487Z,27.01
2023-02-22T18:34:03.301Z,27.03
2023-02-22T18:35:03.128Z,27.00
2023-02-22T19:24:55.085Z,27.12
2023-02-22T19:25:54.925Z,27.20
2023-02-22T19:26:54.772Z,27.10
2023-02-22T19:27:54.625Z,27.15
2023-02-22T19:28:54.471Z,27.16
2023-02-22T19:29:54.321Z,27.11
2023-02-22T19:30:54.168Z,27.13
2023-02-22T19:31:54.239Z,27.14
2023-02-22T19:32:53.908Z,27.19
2023-02-22T19:33:53.708Z,27.15
2023-02-22T19:34:53.545Z,27.15
2023-02-22T19:35:53.400Z,27.15
2023-02-22T19:36:53.238Z,27.20
2023-02-22T20:22:46.057Z,27.26
2023-02-22T20:23:45.891Z,27.26
2023-02-22T20:24:45.745Z,27.26
2023-02-22T20:25:45.590Z,27.29
2023-02-22T20:26:45.425Z,27.25
2023-02-22T20:27:45.274Z,27.23
2023-02-22T20:28:45.120Z,27.27
2023-02-22T20:29:44.962Z,27.26
2023-02-22T20:30:44.837Z,27.26
2023-02-22T20:31:44.722Z,27.27
2023-02-22T20:32:44.714Z,27.26
2023-02-22T20:33:44.439Z,27.27
2023-02-22T20:34:44.190Z,27.32
2023-02-22T20:35:44.036Z,27.30
2023-02-22T20:36:43.889Z,27.27
2023-02-22T20:37:43.737Z,27.29
2023-02-22T20:38:43.576Z,27.27
2023-02-22T20:39:43.429Z,27.32
2023-02-22T20:40:43.272Z,27.29
2023-02-22T20:41:43.137Z,27.34
2023-02-22T21:29:35.842Z,27.40
2023-02-22T21:30:35.792Z,27.36
2023-02-22T21:31:35.721Z,27.41
2023-02-22T21:32:35.462Z,27.38
2023-02-22T21:33:35.233Z,27.42
2023-02-22T21:34:35.073Z,27.43
2023-02-22T21:35:34.922Z,27.38
2023-02-22T21:36:34.789Z,27.40
2023-02-22T21:37:34.630Z,27.34
2023-02-22T21:38:34.493Z,27.42
2023-02-22T21:39:34.306Z,27.42
2023-02-22T21:40:34.147Z,27.43
2023-02-22T21:41:34.001Z,27.37
2023-02-22T21:42:33.850Z,27.40
2023-02-22T21:43:33.689Z,27.38
2023-02-22T21:44:33.542Z,27.38
2023-02-22T21:45:33.380Z,27.40
2023-02-22T21:46:33.237Z,27.38
2023-02-22T22:46:24.299Z,27.48
2023-02-22T22:49:23.746Z,27.47
2023-02-22T22:50:23.606Z,27.49
2023-02-22T22:51:23.448Z,27.49
2023-02-22T22:52:23.292Z,27.51
2023-02-22T22:53:23.148Z,27.52
2023-02-22T23:09:20.735Z,27.52
2023-02-22T23:10:20.609Z,27.49
2023-02-22T23:11:20.424Z,27.53
2023-02-22T23:12:20.269Z,27.49
2023-02-22T23:13:20.126Z,27.52
2023-02-22T23:14:19.968Z,27.56
2023-02-22T23:15:19.833Z,27.49
2023-02-22T23:16:19.706Z,27.52
2023-02-22T23:17:19.521Z,27.53
2023-02-22T23:18:19.367Z,27.51
2023-02-22T23:19:19.320Z,27.51
2023-02-22T23:20:19.079Z,27.56
2023-02-22T23:21:19.198Z,27.58
2023-02-22T23:22:18.777Z,27.53
2023-02-22T23:23:18.628Z,27.55
2023-02-22T23:24:18.480Z,27.52
2023-02-22T23:25:18.334Z,27.56
2023-02-22T23:26:18.205Z,27.53
2023-02-22T23:27:18.038Z,27.55
2023-02-22T23:28:17.896Z,27.55
2023-02-22T23:29:17.750Z,27.52
2023-02-22T23:30:17.597Z,27.58
2023-02-22T23:31:18.013Z,27.53
2023-02-22T23:32:17.424Z,27.53
2023-02-22T23:33:17.140Z,27.56
2023-02-22T23:53:14.180Z,27.59
2023-02-22T23:54:14.032Z,27.56
2023-02-22T23:55:13.884Z,27.59
2023-02-22T23:56:13.737Z,27.57
2023-02-22T23:57:13.583Z,27.57
2023-02-22T23:58:13.441Z,27.63
2023-02-22T23:59:13.296Z,27.63
